Terminal Aerodrome Forecast
Issued by NWS

Home | Current Version | Previous Version | Text Only | Print | Product List | Glossary Off
Versions: 1 2 3 4 5 6 7 8 9 10 11 12 13 14 15 16 17 18 19 20 21

000
FTUS43 KBIS 310530
TAFDIK
TAF
KDIK 310530Z 3106/0106 28012KT P6SM SCT030
     FM311200 27017G25KT P6SM BKN020
     FM311500 27020G28KT P6SM -SHRA OVC015
     FM311900 30023G33KT P6SM -SHRA VCTS OVC015CB
     FM010000 32020G28KT P6SM OVC020
     FM010300 31013KT P6SM BKN030=

USA.gov is the U.S. government's official web portal to all federal, state and local government web resources and services.